Time;durP1;ratioP1;P1;durP2;ratioP2;P2;SDS_P1;SDS_P2;PMS_P1;PMS_P2;Temp;Humidity;BMP_temperature;BMP_pressure;BME280_temperature;BME280_humidity;BME280_pressure;Samples;Min_cycle;Max_cycle;Signal;HPM_P1;HPM_P2
2022/02/23 00:00:32;;;;;;;7.43;1.57;;;5.10;99.90;;;;;;4998770;28;20214;-79
2022/02/23 00:02:57;;;;;;;7.17;1.13;;;5.00;99.90;;;;;;4998769;28;20192;-78
2022/02/23 00:05:23;;;;;;;5.27;1.20;;;5.00;99.90;;;;;;4997690;28;20569;-80
2022/02/23 00:07:48;;;;;;;8.17;1.50;;;4.90;99.90;;;;;;4996838;28;20269;-79
2022/02/23 00:10:14;;;;;;;8.33;1.77;;;5.00;99.90;;;;;;5001567;28;20211;-79
2022/02/23 00:12:40;;;;;;;6.93;1.70;;;5.00;99.90;;;;;;5017902;28;20278;-79
2022/02/23 00:15:06;;;;;;;4.80;1.47;;;4.90;99.90;;;;;;5000559;28;20262;-78
2022/02/23 00:17:31;;;;;;;8.80;1.90;;;5.00;99.90;;;;;;5017866;28;20768;-77
2022/02/23 00:19:57;;;;;;;3.77;1.23;;;4.90;99.90;;;;;;5001913;28;20211;-77
2022/02/23 00:22:24;;;;;;;6.43;1.37;;;4.90;99.90;;;;;;5018009;28;20256;-78
2022/02/23 00:24:50;;;;;;;3.90;1.33;;;4.90;99.90;;;;;;5002189;28;20192;-83
2022/02/23 00:27:15;;;;;;;7.50;1.90;;;4.90;99.90;;;;;;5016392;28;20274;-78
2022/02/23 00:29:41;;;;;;;6.83;1.40;;;5.00;99.90;;;;;;5009252;28;20298;-77
2022/02/23 00:32:07;;;;;;;6.90;1.17;;;4.90;99.90;;;;;;4999854;28;21119;-80
2022/02/23 00:34:34;;;;;;;5.20;1.63;;;4.90;99.90;;;;;;4999474;28;20230;-77
2022/02/23 00:37:00;;;;;;;6.67;1.57;;;4.90;99.90;;;;;;5017109;28;20336;-80
2022/02/23 00:39:25;;;;;;;5.63;1.40;;;5.00;99.90;;;;;;5002805;28;20211;-77
2022/02/23 00:41:51;;;;;;;5.40;1.17;;;4.90;99.90;;;;;;5002100;28;20215;-78
2022/02/23 00:44:18;;;;;;;6.43;1.43;;;5.00;99.90;;;;;;5002985;28;20203;-79
2022/02/23 00:46:44;;;;;;;6.50;1.80;;;5.00;99.90;;;;;;5003985;28;20197;-80
2022/02/23 00:49:10;;;;;;;7.87;1.43;;;4.90;99.90;;;;;;5015798;28;20212;-80
2022/02/23 00:51:35;;;;;;;7.13;1.40;;;4.90;99.90;;;;;;4999948;28;20183;-76
2022/02/23 00:54:01;;;;;;;6.07;1.40;;;4.80;99.90;;;;;;5000658;28;20765;-77
2022/02/23 00:56:26;;;;;;;8.37;1.50;;;4.80;99.90;;;;;;5001216;28;20180;-80
2022/02/23 00:58:52;;;;;;;8.37;2.07;;;4.90;99.90;;;;;;5002239;28;20236;-77
2022/02/23 01:01:18;;;;;;;7.43;2.03;;;5.00;99.90;;;;;;5000168;28;20195;-78
2022/02/23 01:03:44;;;;;;;7.57;1.30;;;5.00;99.90;;;;;;5000935;28;20210;-77
2022/02/23 01:06:10;;;;;;;7.00;1.43;;;5.10;99.90;;;;;;4999775;28;20187;-79
2022/02/23 01:08:35;;;;;;;6.50;1.13;;;5.10;99.90;;;;;;4999779;28;20216;-79
2022/02/23 01:11:02;;;;;;;5.93;1.40;;;5.20;99.90;;;;;;5000265;28;20208;-78
2022/02/23 01:13:28;;;;;;;7.33;1.50;;;5.30;99.90;;;;;;5009113;28;20537;-79
2022/02/23 01:15:54;;;;;;;6.27;2.10;;;5.30;99.90;;;;;;5000620;28;20750;-79
2022/02/23 01:18:19;;;;;;;6.40;1.80;;;5.40;99.90;;;;;;5015372;28;20188;-78
2022/02/23 01:20:45;;;;;;;9.57;1.67;;;5.40;99.90;;;;;;5000075;28;20777;-79
2022/02/23 01:23:10;;;;;;;6.93;2.37;;;5.40;99.90;;;;;;5017276;28;20759;-78
2022/02/23 01:25:37;;;;;;;10.90;2.60;;;5.60;99.90;;;;;;5004736;28;20184;-77
2022/02/23 01:28:05;;;;;;;7.20;1.30;;;5.50;99.90;;;;;;5001652;28;20203;-78
2022/02/23 01:30:32;;;;;;;10.73;2.10;;;5.50;99.90;;;;;;5000053;28;20647;-77
2022/02/23 01:32:58;;;;;;;9.90;1.70;;;5.50;99.90;;;;;;5001767;28;20613;-79
2022/02/23 01:35:24;;;;;;;10.83;2.23;;;5.60;99.90;;;;;;4999199;28;20207;-78
2022/02/23 01:37:49;;;;;;;10.63;2.20;;;5.60;99.90;;;;;;5002201;28;20187;-80
2022/02/23 01:40:15;;;;;;;6.83;1.70;;;5.60;99.90;;;;;;5000538;28;20708;-78
2022/02/23 01:42:41;;;;;;;7.60;2.50;;;5.60;99.90;;;;;;5015751;28;20202;-79
2022/02/23 01:45:07;;;;;;;7.07;1.57;;;5.70;99.90;;;;;;5001504;28;20194;-78
2022/02/23 01:47:33;;;;;;;9.37;2.33;;;5.70;99.90;;;;;;5000982;28;21043;-78
2022/02/23 01:49:59;;;;;;;7.13;1.40;;;5.70;99.90;;;;;;5014638;28;20295;-77
2022/02/23 01:52:25;;;;;;;7.27;1.60;;;5.70;99.90;;;;;;4999047;28;20191;-79
2022/02/23 01:54:55;;;;;;;6.93;1.50;;;5.70;99.90;;;;;;5006843;28;20185;-77
2022/02/23 01:57:21;;;;;;;7.27;1.60;;;5.60;99.90;;;;;;4999770;28;20214;-77
2022/02/23 01:59:48;;;;;;;9.00;1.67;;;5.50;99.90;;;;;;5005402;28;20211;-81
2022/02/23 02:02:14;;;;;;;6.27;2.10;;;5.60;99.90;;;;;;4995938;28;20223;-78
2022/02/23 02:04:40;;;;;;;6.87;1.63;;;5.50;99.90;;;;;;4998982;28;20219;-79
2022/02/23 02:07:05;;;;;;;8.37;2.10;;;5.50;99.90;;;;;;5004771;28;20247;-78
2022/02/23 02:09:31;;;;;;;9.77;2.13;;;5.40;99.90;;;;;;4996703;28;20242;-78
2022/02/23 02:11:56;;;;;;;9.93;2.43;;;5.50;99.90;;;;;;4997247;28;20179;-79
2022/02/23 02:14:22;;;;;;;8.47;2.00;;;5.50;99.90;;;;;;5002248;28;20243;-78
2022/02/23 02:16:48;;;;;;;7.43;1.97;;;5.50;99.90;;;;;;5002325;28;20237;-78
2022/02/23 02:19:14;;;;;;;8.90;1.43;;;5.50;99.90;;;;;;5001085;28;20200;-80
2022/02/23 02:21:54;;;;;;;10.17;2.10;;;5.50;99.90;;;;;;5001279;28;20192;-78
2022/02/23 02:24:22;;;;;;;12.67;2.43;;;5.50;99.90;;;;;;5006246;28;20183;-79
2022/02/23 02:26:48;;;;;;;8.97;1.83;;;5.50;99.90;;;;;;4999927;28;20713;-78
2022/02/23 02:29:13;;;;;;;8.33;1.57;;;5.40;99.90;;;;;;5015184;28;20222;-76
2022/02/23 02:31:39;;;;;;;6.90;1.80;;;5.40;99.90;;;;;;5006866;28;20187;-80
2022/02/23 02:34:04;;;;;;;6.80;1.70;;;5.40;99.90;;;;;;5014567;28;20234;-76
2022/02/23 02:36:30;;;;;;;8.37;2.30;;;5.30;99.90;;;;;;4997795;28;20195;-79
2022/02/23 02:38:56;;;;;;;10.23;2.50;;;5.40;99.90;;;;;;5015057;28;20186;-79
2022/02/23 02:41:21;;;;;;;7.37;1.80;;;5.40;99.90;;;;;;5000959;28;20203;-79
2022/02/23 02:43:47;;;;;;;6.97;2.07;;;5.40;99.90;;;;;;5000098;28;20693;-76
2022/02/23 02:46:13;;;;;;;13.20;2.00;;;5.40;99.90;;;;;;5000950;28;20208;-82
2022/02/23 02:48:38;;;;;;;8.00;1.87;;;5.40;99.90;;;;;;5016456;28;20612;-79
2022/02/23 02:51:04;;;;;;;11.77;1.63;;;5.40;99.90;;;;;;5000822;28;20200;-80
2022/02/23 02:53:29;;;;;;;5.17;1.30;;;5.50;99.90;;;;;;5014531;28;20199;-80
2022/02/23 02:55:56;;;;;;;8.13;1.87;;;5.40;99.90;;;;;;5013458;28;20198;-79
2022/02/23 02:58:21;;;;;;;9.63;2.03;;;5.40;99.90;;;;;;5007011;28;20666;-80
2022/02/23 03:00:47;;;;;;;7.03;2.27;;;5.40;99.90;;;;;;5014563;28;20261;-82
2022/02/23 03:03:12;;;;;;;8.60;1.60;;;5.40;99.90;;;;;;5000885;28;20278;-81
2022/02/23 03:05:38;;;;;;;7.97;1.77;;;5.40;99.90;;;;;;5000972;28;20214;-78
2022/02/23 03:08:04;;;;;;;7.37;1.80;;;5.50;99.90;;;;;;5000005;28;20346;-78
2022/02/23 03:10:29;;;;;;;9.37;2.20;;;5.50;99.90;;;;;;5000670;28;20227;-80
2022/02/23 03:12:55;;;;;;;8.10;1.47;;;5.50;99.90;;;;;;5016822;28;20187;-83
2022/02/23 03:15:21;;;;;;;11.07;1.30;;;5.50;99.90;;;;;;4998110;28;20265;-78
2022/02/23 03:17:46;;;;;;;11.63;1.93;;;5.50;99.90;;;;;;5000533;28;20191;-78
2022/02/23 03:20:12;;;;;;;7.30;1.60;;;5.60;99.90;;;;;;4998345;28;20384;-81
2022/02/23 03:22:38;;;;;;;6.70;1.50;;;5.60;99.90;;;;;;5016305;28;20192;-79
2022/02/23 03:25:05;;;;;;;7.07;1.87;;;5.50;99.90;;;;;;5006726;28;20191;-78
2022/02/23 03:27:31;;;;;;;7.50;1.10;;;5.60;99.90;;;;;;4998919;28;20219;-78
2022/02/23 03:29:57;;;;;;;6.73;2.10;;;5.60;99.90;;;;;;5000101;28;20239;-78
2022/02/23 03:32:22;;;;;;;7.40;1.50;;;5.50;99.90;;;;;;5001109;28;20574;-80
2022/02/23 03:34:48;;;;;;;10.33;2.10;;;5.60;99.90;;;;;;5015112;28;20194;-80
2022/02/23 03:37:13;;;;;;;9.67;2.47;;;5.60;99.90;;;;;;4999971;28;20220;-77
2022/02/23 03:39:39;;;;;;;8.37;1.43;;;5.50;99.90;;;;;;5014621;28;20220;-80
2022/02/23 03:42:05;;;;;;;8.20;2.20;;;5.50;99.90;;;;;;5014403;28;20212;-78
2022/02/23 03:44:31;;;;;;;7.27;1.63;;;5.40;99.90;;;;;;5016651;28;20253;-80
2022/02/23 03:46:56;;;;;;;6.80;1.30;;;5.30;99.90;;;;;;5016869;28;20674;-80
2022/02/23 03:49:22;;;;;;;18.43;2.67;;;5.30;99.90;;;;;;5018378;28;20602;-78
2022/02/23 03:51:48;;;;;;;9.70;1.50;;;5.30;99.90;;;;;;5002151;28;20673;-77
2022/02/23 03:54:13;;;;;;;6.50;1.50;;;5.30;99.90;;;;;;5002954;28;20187;-80
2022/02/23 03:56:39;;;;;;;9.90;1.60;;;5.40;99.90;;;;;;5018942;28;20195;-78
2022/02/23 03:59:11;;;;;;;6.13;1.40;;;5.40;99.90;;;;;;5005080;28;20711;-75
2022/02/23 04:01:39;;;;;;;7.23;1.80;;;5.40;99.90;;;;;;5002510;28;20184;-79
2022/02/23 04:04:06;;;;;;;8.27;2.43;;;5.50;99.90;;;;;;5003217;28;20184;-79
2022/02/23 04:06:32;;;;;;;12.17;2.07;;;5.40;99.90;;;;;;5020407;28;20187;-82
2022/02/23 04:09:00;;;;;;;4.40;1.37;;;5.50;99.90;;;;;;5003499;28;20203;-79
2022/02/23 04:11:26;;;;;;;8.07;1.93;;;5.60;99.90;;;;;;5003508;28;20175;-78
2022/02/23 04:13:51;;;;;;;10.40;1.53;;;5.50;99.90;;;;;;5019639;28;20187;-77
2022/02/23 04:16:17;;;;;;;8.77;1.53;;;5.50;99.90;;;;;;5003116;28;20181;-77
2022/02/23 04:18:44;;;;;;;8.73;2.00;;;5.60;99.90;;;;;;5004879;28;20274;-77
2022/02/23 04:21:10;;;;;;;4.40;1.17;;;5.60;99.90;;;;;;5003798;28;20609;-77
2022/02/23 04:23:35;;;;;;;10.53;2.13;;;5.60;99.90;;;;;;5002994;28;20227;-80
2022/02/23 04:26:01;;;;;;;8.47;2.13;;;5.60;99.90;;;;;;5018286;28;20275;-77
2022/02/23 04:28:29;;;;;;;8.93;1.83;;;5.60;99.90;;;;;;5002182;28;20215;-75
2022/02/23 04:30:55;;;;;;;6.57;1.50;;;5.60;99.90;;;;;;5001738;28;20204;-78
2022/02/23 04:33:21;;;;;;;7.57;1.53;;;5.60;99.90;;;;;;5010077;28;20207;-78
2022/02/23 04:35:47;;;;;;;7.70;1.47;;;5.60;99.90;;;;;;5003680;28;20250;-79
2022/02/23 04:38:14;;;;;;;7.00;1.47;;;5.60;99.90;;;;;;5010014;28;20176;-82
2022/02/23 04:40:43;;;;;;;7.50;1.53;;;5.60;99.90;;;;;;5002848;28;20215;-77
2022/02/23 04:43:09;;;;;;;6.10;1.67;;;5.60;99.90;;;;;;5018095;28;20211;-79
2022/02/23 04:45:34;;;;;;;7.53;1.73;;;5.60;99.90;;;;;;5001288;28;20191;-80
2022/02/23 04:48:00;;;;;;;7.33;1.37;;;5.50;99.90;;;;;;5020228;28;20203;-81
2022/02/23 04:50:25;;;;;;;4.13;1.30;;;5.50;99.90;;;;;;5003196;28;20203;-79
2022/02/23 04:52:51;;;;;;;5.33;1.20;;;5.60;99.90;;;;;;5017277;28;20180;-79
2022/02/23 04:55:17;;;;;;;6.57;1.83;;;5.50;99.90;;;;;;5016607;28;20556;-78
2022/02/23 04:57:43;;;;;;;8.83;2.27;;;5.50;99.90;;;;;;4999938;28;20650;-78
2022/02/23 05:00:09;;;;;;;8.67;1.77;;;5.50;99.90;;;;;;5003591;28;20207;-79
2022/02/23 05:02:35;;;;;;;5.47;1.53;;;5.50;99.90;;;;;;5001200;28;20199;-80
2022/02/23 05:05:01;;;;;;;8.60;1.17;;;5.50;99.90;;;;;;5018010;28;20259;-77
2022/02/23 05:07:27;;;;;;;8.17;1.63;;;5.50;99.90;;;;;;5017036;28;20215;-79
2022/02/23 05:09:53;;;;;;;7.57;1.30;;;5.40;99.90;;;;;;5017280;28;20256;-80
2022/02/23 05:12:18;;;;;;;4.00;1.53;;;5.40;99.90;;;;;;5001161;28;20663;-81
2022/02/23 05:14:44;;;;;;;8.27;1.73;;;5.50;99.90;;;;;;4999128;28;20192;-78
2022/02/23 05:17:11;;;;;;;5.83;1.50;;;5.40;99.90;;;;;;5016204;28;20211;-78
2022/02/23 05:19:37;;;;;;;6.93;1.70;;;5.40;99.90;;;;;;5009254;28;20211;-79
2022/02/23 05:22:05;;;;;;;7.33;1.60;;;5.40;99.90;;;;;;5001556;28;20192;-79
2022/02/23 05:24:30;;;;;;;10.43;2.43;;;5.40;99.90;;;;;;5004840;28;20562;-79
2022/02/23 05:26:56;;;;;;;9.03;1.63;;;5.40;99.90;;;;;;5010224;28;20188;-78
2022/02/23 05:29:23;;;;;;;5.73;1.80;;;5.30;99.90;;;;;;5000340;28;20718;-78
2022/02/23 05:31:49;;;;;;;5.70;1.53;;;5.30;99.90;;;;;;5002485;28;20194;-79
2022/02/23 05:34:14;;;;;;;6.90;1.47;;;5.20;99.90;;;;;;5002318;28;20188;-81
2022/02/23 05:36:41;;;;;;;6.93;1.67;;;5.20;99.90;;;;;;5000216;28;20635;-79
2022/02/23 05:39:07;;;;;;;4.53;1.80;;;5.10;99.90;;;;;;5003223;28;20677;-78
2022/02/23 05:41:32;;;;;;;8.47;1.50;;;5.00;99.90;;;;;;5000748;28;20196;-77
2022/02/23 05:43:58;;;;;;;6.27;1.90;;;4.90;99.90;;;;;;5000211;28;20198;-78
2022/02/23 05:46:24;;;;;;;5.53;1.50;;;4.90;99.90;;;;;;4999862;28;20184;-78
2022/02/23 05:48:49;;;;;;;7.60;1.43;;;5.00;99.90;;;;;;4998966;28;20216;-80
2022/02/23 05:51:38;;;;;;;8.57;1.70;;;5.00;99.90;;;;;;5018128;28;20188;-81
2022/02/23 05:54:05;;;;;;;6.07;1.87;;;5.00;99.90;;;;;;5002834;28;20216;-79
2022/02/23 05:56:31;;;;;;;7.57;1.50;;;5.00;99.90;;;;;;5001756;28;20189;-80
2022/02/23 05:58:57;;;;;;;10.27;1.90;;;4.90;99.90;;;;;;5018000;28;20190;-76
2022/02/23 06:01:22;;;;;;;8.33;1.40;;;4.90;99.90;;;;;;5002628;28;20187;-79
2022/02/23 06:03:48;;;;;;;8.00;2.00;;;4.90;99.90;;;;;;5001198;28;20214;-79
2022/02/23 06:06:14;;;;;;;5.70;2.47;;;5.00;99.90;;;;;;5001698;28;20735;-78
2022/02/23 06:08:39;;;;;;;7.80;1.77;;;5.00;99.90;;;;;;5002260;28;20220;-79
2022/02/23 06:11:06;;;;;;;8.40;2.10;;;5.00;99.90;;;;;;5017924;28;20266;-80
2022/02/23 06:13:31;;;;;;;9.27;2.27;;;5.00;99.90;;;;;;5001651;28;20187;-77
2022/02/23 06:15:57;;;;;;;4.67;1.43;;;5.00;99.90;;;;;;5017326;28;20275;-77
2022/02/23 06:18:23;;;;;;;10.50;2.23;;;4.90;99.90;;;;;;5000971;28;21027;-77
2022/02/23 06:20:49;;;;;;;20.70;3.23;;;4.90;99.90;;;;;;5004309;28;20294;-79
2022/02/23 06:23:14;;;;;;;9.67;2.90;;;4.90;99.90;;;;;;5016374;28;20204;-78
2022/02/23 06:25:40;;;;;;;7.63;1.77;;;4.90;99.90;;;;;;5003786;28;20188;-80
2022/02/23 06:28:05;;;;;;;6.47;1.90;;;4.90;99.90;;;;;;4999159;28;20212;-76
2022/02/23 06:30:31;;;;;;;7.13;2.10;;;4.90;99.90;;;;;;5002840;28;20242;-79
2022/02/23 06:32:57;;;;;;;5.33;1.97;;;5.00;99.90;;;;;;5001422;28;20650;-79
2022/02/23 06:35:27;;;;;;;13.10;2.43;;;5.00;99.90;;;;;;5001718;28;20188;-80
2022/02/23 06:37:53;;;;;;;9.33;2.10;;;5.00;99.90;;;;;;5017306;28;20243;-80
2022/02/23 06:40:19;;;;;;;14.23;3.00;;;5.20;99.90;;;;;;5004999;28;20220;-78
2022/02/23 06:42:45;;;;;;;9.20;2.97;;;5.20;99.90;;;;;;5003120;28;20183;-80
2022/02/23 06:45:11;;;;;;;9.63;2.20;;;5.20;99.90;;;;;;5002457;28;20180;-81
2022/02/23 06:47:37;;;;;;;7.53;2.07;;;5.30;99.90;;;;;;5017125;28;20184;-79
2022/02/23 06:50:03;;;;;;;6.47;1.60;;;5.30;99.90;;;;;;5001374;28;20199;-78
2022/02/23 06:52:29;;;;;;;7.83;2.13;;;5.30;99.90;;;;;;5030213;28;20245;-77
2022/02/23 06:54:55;;;;;;;6.43;1.53;;;5.40;99.90;;;;;;5003795;28;20194;-78
2022/02/23 06:57:21;;;;;;;10.50;2.00;;;5.40;99.90;;;;;;5000516;28;20188;-78
2022/02/23 06:59:47;;;;;;;11.57;2.17;;;5.50;99.90;;;;;;5003379;28;20306;-78
2022/02/23 07:02:13;;;;;;;9.47;1.63;;;5.50;99.90;;;;;;5015390;28;20191;-79
2022/02/23 07:04:39;;;;;;;10.47;1.80;;;5.50;99.90;;;;;;5000535;28;20279;-80
2022/02/23 07:07:05;;;;;;;6.27;1.70;;;5.50;99.90;;;;;;5019620;28;20220;-80
2022/02/23 07:09:32;;;;;;;8.07;1.20;;;5.60;99.90;;;;;;4998947;28;20215;-78
2022/02/23 07:11:58;;;;;;;9.50;2.10;;;5.60;99.90;;;;;;5001016;28;20216;-77
2022/02/23 07:14:24;;;;;;;11.07;2.03;;;5.70;99.90;;;;;;5000239;28;20179;-78
2022/02/23 07:16:50;;;;;;;6.60;1.67;;;5.60;99.90;;;;;;4997925;28;20183;-80
2022/02/23 07:19:16;;;;;;;5.90;1.73;;;5.70;99.90;;;;;;5013816;28;20683;-77
2022/02/23 07:21:42;;;;;;;6.83;1.60;;;5.70;99.90;;;;;;5002543;28;20183;-79
2022/02/23 07:24:07;;;;;;;5.77;1.70;;;5.70;99.90;;;;;;5005145;28;20175;-79
2022/02/23 07:26:33;;;;;;;8.83;2.00;;;5.80;99.90;;;;;;5003814;28;20206;-79
2022/02/23 07:28:59;;;;;;;10.27;2.30;;;5.80;99.90;;;;;;5003238;28;20211;-78
2022/02/23 07:31:25;;;;;;;9.47;1.90;;;5.80;99.90;;;;;;5017223;28;20576;-78
2022/02/23 07:33:51;;;;;;;6.37;1.67;;;5.80;99.90;;;;;;5017695;28;20183;-79
2022/02/23 07:36:18;;;;;;;8.67;2.40;;;5.90;99.90;;;;;;5004870;28;20183;-77
2022/02/23 07:38:45;;;;;;;11.03;2.23;;;6.00;99.90;;;;;;5018585;28;20270;-78
2022/02/23 07:41:14;;;;;;;7.53;2.27;;;6.00;99.90;;;;;;5018361;28;20187;-79
2022/02/23 07:43:39;;;;;;;10.10;2.50;;;6.00;99.90;;;;;;5001291;28;20199;-78
2022/02/23 07:46:10;;;;;;;11.67;1.97;;;6.10;99.90;;;;;;5018246;28;20548;-82
2022/02/23 07:48:37;;;;;;;8.47;2.10;;;6.10;99.90;;;;;;5003519;28;20200;-80
2022/02/23 07:51:04;;;;;;;11.97;2.40;;;6.20;99.90;;;;;;5002574;28;20196;-79
2022/02/23 07:53:31;;;;;;;8.87;1.80;;;6.30;99.90;;;;;;5004075;28;20188;-76
2022/02/23 07:55:56;;;;;;;9.37;1.97;;;6.40;99.90;;;;;;5004717;28;20191;-76
2022/02/23 07:58:22;;;;;;;9.03;2.00;;;6.40;99.90;;;;;;5003166;28;20191;-79
2022/02/23 08:00:48;;;;;;;6.17;1.77;;;6.50;99.90;;;;;;5004379;28;20206;-77
2022/02/23 08:03:14;;;;;;;8.67;1.97;;;6.60;99.90;;;;;;5016154;28;20204;-79
2022/02/23 08:05:40;;;;;;;7.37;1.70;;;6.70;99.90;;;;;;5001168;28;20191;-79
2022/02/23 08:08:06;;;;;;;7.77;2.60;;;6.70;99.90;;;;;;5001703;28;20212;-78
2022/02/23 08:10:33;;;;;;;10.40;2.27;;;6.60;99.90;;;;;;5004114;28;20243;-78
2022/02/23 08:12:59;;;;;;;11.97;2.53;;;6.70;99.90;;;;;;5001716;28;20250;-79
2022/02/23 08:20:56;;;;;;;8.73;2.17;;;6.60;99.90;;;;;;5004029;28;20718;-78
2022/02/23 08:23:22;;;;;;;9.63;2.40;;;6.60;99.90;;;;;;5002371;28;20220;-78
2022/02/23 08:25:48;;;;;;;9.53;2.40;;;6.60;99.90;;;;;;5018627;28;20272;-77
2022/02/23 08:28:15;;;;;;;9.57;2.10;;;6.70;99.90;;;;;;5003598;28;20226;-78
2022/02/23 08:30:41;;;;;;;10.93;2.37;;;6.70;99.90;;;;;;5017773;28;20203;-77
2022/02/23 08:33:07;;;;;;;10.67;2.40;;;6.60;99.90;;;;;;5003913;28;20172;-78
2022/02/23 08:35:33;;;;;;;8.60;2.13;;;6.50;99.90;;;;;;5000276;28;20263;-77
2022/02/23 08:37:59;;;;;;;8.40;2.17;;;6.50;99.90;;;;;;5001766;28;20224;-78
2022/02/23 08:40:26;;;;;;;7.77;2.00;;;6.60;99.90;;;;;;4999539;28;20253;-78
2022/02/23 08:42:53;;;;;;;10.20;2.43;;;6.70;99.90;;;;;;5008907;28;20180;-78
2022/02/23 08:45:19;;;;;;;9.77;2.50;;;6.70;99.90;;;;;;4999114;28;20184;-79
2022/02/23 08:47:45;;;;;;;7.70;1.93;;;6.80;99.90;;;;;;5003767;28;20183;-80
2022/02/23 08:50:10;;;;;;;6.90;2.23;;;6.90;99.90;;;;;;4998861;28;20203;-78
2022/02/23 08:52:36;;;;;;;6.73;2.03;;;6.80;99.90;;;;;;5009625;28;20651;-79
2022/02/23 08:55:03;;;;;;;7.13;2.50;;;6.80;99.90;;;;;;4994962;28;20190;-77
2022/02/23 08:57:29;;;;;;;13.23;2.97;;;6.80;99.90;;;;;;5018187;28;20796;-77
2022/02/23 08:59:55;;;;;;;11.67;2.33;;;7.00;99.90;;;;;;4992334;28;20460;-78
2022/02/23 09:02:20;;;;;;;9.20;2.97;;;7.10;99.90;;;;;;4999352;28;20206;-79
2022/02/23 09:04:46;;;;;;;11.30;2.67;;;7.20;99.90;;;;;;5000434;28;20199;-77
2022/02/23 09:07:13;;;;;;;7.73;2.37;;;7.20;99.90;;;;;;4992546;28;20177;-79
2022/02/23 09:09:38;;;;;;;6.10;1.87;;;7.30;99.90;;;;;;4992499;28;20299;-80
2022/02/23 09:12:04;;;;;;;11.70;2.60;;;7.30;99.90;;;;;;5007773;28;20615;-79
2022/02/23 09:14:30;;;;;;;6.23;2.07;;;7.30;99.90;;;;;;4997354;28;20682;-79
2022/02/23 09:16:56;;;;;;;10.03;3.23;;;7.30;99.90;;;;;;4992204;28;20204;-79
2022/02/23 09:19:22;;;;;;;10.17;2.60;;;7.30;99.90;;;;;;4987140;28;20263;-78
2022/02/23 09:21:47;;;;;;;8.47;2.40;;;7.30;99.90;;;;;;4993064;28;20259;-81
2022/02/23 09:24:13;;;;;;;7.87;2.30;;;7.40;99.90;;;;;;4995258;28;20286;-80
2022/02/23 09:26:39;;;;;;;14.00;2.53;;;7.40;99.90;;;;;;5007197;28;20199;-78
2022/02/23 09:29:04;;;;;;;9.87;1.93;;;7.40;99.90;;;;;;5008914;28;20215;-78
2022/02/23 09:31:31;;;;;;;6.53;2.57;;;7.30;99.90;;;;;;4993348;28;20625;-79
2022/02/23 09:33:57;;;;;;;9.87;2.20;;;7.20;99.90;;;;;;4988440;28;20263;-79
2022/02/23 09:36:23;;;;;;;11.83;3.27;;;7.20;99.90;;;;;;4993562;28;20184;-77
2022/02/23 09:38:51;;;;;;;7.63;1.80;;;7.20;99.90;;;;;;4993866;28;20940;-77
2022/02/23 09:41:18;;;;;;;9.30;2.67;;;7.10;99.90;;;;;;5003764;28;20184;-77
2022/02/23 09:43:52;;;;;;;11.33;2.97;;;7.40;99.90;;;;;;5000420;28;20407;-80
2022/02/23 09:46:21;;;;;;;9.40;2.80;;;7.50;99.90;;;;;;5000888;28;20191;-78
2022/02/23 09:48:48;;;;;;;9.00;2.30;;;7.70;99.90;;;;;;5010163;28;20199;-78
2022/02/23 09:51:13;;;;;;;9.30;2.30;;;7.90;99.90;;;;;;5002383;28;20190;-75
2022/02/23 09:53:45;;;;;;;12.70;2.73;;;8.20;99.90;;;;;;5005736;28;20187;-77
2022/02/23 09:56:15;;;;;;;9.40;2.23;;;8.40;99.90;;;;;;5006713;28;20180;-79
2022/02/23 09:58:40;;;;;;;9.33;2.20;;;8.60;99.90;;;;;;4993344;28;20220;-78
2022/02/23 10:01:07;;;;;;;6.10;1.87;;;8.70;99.90;;;;;;5007562;28;20235;-78
2022/02/23 10:03:34;;;;;;;5.50;2.07;;;8.60;99.90;;;;;;4998850;28;20199;-77
2022/02/23 10:06:00;;;;;;;5.83;2.07;;;8.30;99.90;;;;;;4991656;28;20203;-79
2022/02/23 10:08:32;;;;;;;6.80;1.90;;;8.20;99.90;;;;;;5006569;28;20216;-77
2022/02/23 10:10:59;;;;;;;6.00;2.17;;;8.10;99.90;;;;;;4991703;28;20853;-76
2022/02/23 10:13:25;;;;;;;8.33;2.00;;;7.90;99.90;;;;;;5010764;28;20195;-77
2022/02/23 10:15:51;;;;;;;6.40;1.70;;;7.80;99.90;;;;;;4992297;28;20180;-81
2022/02/23 10:18:20;;;;;;;6.17;1.80;;;7.80;99.90;;;;;;5015471;28;20183;-78
2022/02/23 10:20:48;;;;;;;7.87;1.73;;;7.70;99.90;;;;;;4990111;28;20205;-77
2022/02/23 10:23:18;;;;;;;8.03;2.13;;;7.80;99.90;;;;;;5007285;28;20211;-80
2022/02/23 10:25:50;;;;;;;5.43;1.80;;;7.80;99.90;;;;;;4997154;28;20184;-79
2022/02/23 10:28:20;;;;;;;9.20;1.90;;;7.90;99.90;;;;;;5012465;28;20852;-81
2022/02/23 10:31:04;;;;;;;7.70;2.07;;;8.00;99.90;;;;;;4991120;28;20203;-78
2022/02/23 10:33:32;;;;;;;8.50;1.97;;;8.30;99.90;;;;;;4989172;28;20180;-76
2022/02/23 10:36:15;;;;;;;8.43;2.37;;;8.40;99.90;;;;;;4998551;28;20395;-79
2022/02/23 10:38:44;;;;;;;7.53;1.80;;;8.40;99.90;;;;;;4994018;28;20192;-79
2022/02/23 10:41:26;;;;;;;11.70;2.63;;;8.50;99.90;;;;;;5010206;28;20550;-80
2022/02/23 10:43:52;;;;;;;8.70;2.60;;;8.70;99.90;;;;;;4992979;28;20680;-81
2022/02/23 10:46:20;;;;;;;8.53;2.03;;;8.70;99.90;;;;;;4989963;28;20271;-80
2022/02/23 10:48:48;;;;;;;6.23;2.03;;;8.70;99.90;;;;;;4988137;28;20204;-77
2022/02/23 10:51:24;;;;;;;7.37;1.90;;;8.80;99.90;;;;;;4993710;28;20234;-78
2022/02/23 10:53:51;;;;;;;5.73;1.50;;;8.90;99.90;;;;;;4986388;28;20183;-75
2022/02/23 10:56:28;;;;;;;8.23;1.93;;;9.00;99.90;;;;;;4992311;28;20180;-77
2022/02/23 10:59:11;;;;;;;10.63;2.23;;;9.10;99.90;;;;;;5000664;28;20223;-81
2022/02/23 11:01:38;;;;;;;7.23;1.73;;;9.00;99.90;;;;;;4988861;28;20773;-79
2022/02/23 11:04:05;;;;;;;4.93;1.63;;;9.00;99.90;;;;;;4996814;28;20195;-81
2022/02/23 11:06:32;;;;;;;7.53;2.13;;;9.10;99.90;;;;;;5014886;28;20614;-77
2022/02/23 11:08:57;;;;;;;6.27;1.70;;;9.10;99.90;;;;;;4987206;28;20262;-79
2022/02/23 11:11:25;;;;;;;8.67;2.37;;;9.10;99.90;;;;;;4994661;28;20224;-79
2022/02/23 11:13:52;;;;;;;8.43;1.90;;;9.10;99.90;;;;;;5012060;28;20176;-83
2022/02/23 11:16:19;;;;;;;5.07;1.60;;;9.40;99.90;;;;;;5011809;28;20239;-80
2022/02/23 11:18:48;;;;;;;8.33;2.23;;;9.40;99.90;;;;;;5001115;28;20188;-77
2022/02/23 11:21:16;;;;;;;9.23;2.53;;;9.40;99.90;;;;;;5001279;28;20275;-80
2022/02/23 11:23:49;;;;;;;3.87;1.60;;;9.50;99.90;;;;;;4995007;28;20657;-79
2022/02/23 11:26:20;;;;;;;6.10;1.73;;;9.50;99.90;;;;;;5008729;28;20180;-81
2022/02/23 11:28:58;;;;;;;8.47;1.60;;;9.50;99.90;;;;;;5005423;28;20199;-83
2022/02/23 11:31:24;;;;;;;5.33;1.30;;;9.40;99.90;;;;;;5012201;28;20206;-81
2022/02/23 11:33:50;;;;;;;4.50;1.10;;;9.40;99.90;;;;;;5008733;28;20230;-80
2022/02/23 11:36:39;;;;;;;5.93;1.50;;;9.30;99.90;;;;;;4994633;28;20180;-81
2022/02/23 11:39:21;;;;;;;7.33;1.73;;;9.30;99.90;;;;;;4992842;28;20180;-79
2022/02/23 11:41:53;;;;;;;4.30;1.20;;;9.30;99.90;;;;;;4996674;28;20659;-79
2022/02/23 11:44:26;;;;;;;3.63;1.50;;;9.50;99.90;;;;;;5000396;28;20187;-78
2022/02/23 11:47:24;;;;;;;2.73;1.10;;;9.60;99.90;;;;;;5000971;28;20253;-79
2022/02/23 11:50:04;;;;;;;4.37;1.60;;;9.60;99.90;;;;;;4993837;28;20677;-76
2022/02/23 11:52:30;;;;;;;4.20;1.53;;;9.70;99.90;;;;;;4999639;28;20359;-79
2022/02/23 11:54:59;;;;;;;5.13;1.50;;;9.70;99.90;;;;;;5009718;28;20725;-81
2022/02/23 11:57:54;;;;;;;4.10;1.03;;;9.70;99.90;;;;;;4996039;28;20191;-78
2022/02/23 12:00:28;;;;;;;3.93;1.20;;;9.70;99.90;;;;;;4992591;28;20262;-78
2022/02/23 12:03:09;;;;;;;4.77;1.50;;;9.50;99.90;;;;;;4993937;28;20196;-76
2022/02/23 12:05:43;;;;;;;5.20;1.40;;;9.60;99.90;;;;;;4996215;28;20187;-78
2022/02/23 12:08:44;;;;;;;5.13;1.30;;;9.60;99.90;;;;;;4996219;28;20219;-79
2022/02/23 12:11:15;;;;;;;5.33;1.20;;;9.50;99.90;;;;;;5003199;28;20599;-80
2022/02/23 12:13:42;;;;;;;4.80;1.20;;;9.50;99.90;;;;;;4986716;28;20879;-78
2022/02/23 12:16:30;;;;;;;4.67;1.40;;;9.70;99.90;;;;;;4985664;28;20191;-76
2022/02/23 12:18:58;;;;;;;6.10;1.43;;;9.80;99.90;;;;;;5001933;28;20294;-78
2022/02/23 12:21:46;;;;;;;5.33;1.23;;;9.70;99.90;;;;;;4988345;28;20222;-76
2022/02/23 12:24:19;;;;;;;5.50;1.43;;;9.90;99.90;;;;;;4987186;28;20275;-80
2022/02/23 12:26:48;;;;;;;2.90;1.13;;;10.10;99.90;;;;;;5012533;28;20183;-79
2022/02/23 12:29:16;;;;;;;3.80;1.20;;;10.00;99.90;;;;;;5001754;28;20215;-76
2022/02/23 12:31:45;;;;;;;5.40;1.23;;;10.10;99.90;;;;;;4984190;28;20185;-78
2022/02/23 12:34:17;;;;;;;5.10;1.80;;;10.00;99.90;;;;;;5002752;28;20636;-78
2022/02/23 12:36:51;;;;;;;3.77;1.10;;;10.10;99.90;;;;;;5008233;28;20188;-76
2022/02/23 12:39:33;;;;;;;5.47;1.03;;;10.30;99.90;;;;;;4998898;28;20210;-77
2022/02/23 12:42:04;;;;;;;5.67;1.53;;;10.10;99.90;;;;;;4999535;28;20184;-80
2022/02/23 12:44:32;;;;;;;3.30;1.40;;;10.00;99.90;;;;;;4982325;28;20199;-77
2022/02/23 12:47:01;;;;;;;1.63;1.00;;;10.00;99.90;;;;;;4983298;28;20184;-78
2022/02/23 12:49:26;;;;;;;3.70;1.13;;;10.00;99.90;;;;;;4988384;28;20212;-75
2022/02/23 12:51:53;;;;;;;4.80;1.00;;;10.10;99.90;;;;;;4983785;28;20191;-79
2022/02/23 12:54:24;;;;;;;3.10;1.10;;;10.20;99.90;;;;;;4991748;28;20270;-78
2022/02/23 12:56:55;;;;;;;3.20;1.50;;;10.20;99.90;;;;;;4999399;28;20253;-75
2022/02/23 12:59:23;;;;;;;3.93;1.03;;;10.10;99.90;;;;;;5001289;28;20777;-80
2022/02/23 13:01:54;;;;;;;2.97;0.90;;;10.20;99.90;;;;;;4992545;28;20266;-77